Terminal Aerodrome Forecast
Issued by NWS Paducah, KY

Home | Current Version | Previous Version | Graphics & Text | Print | Product List | Glossary On
Versions: 1 2 3 4 5 6 7 8 9 10 11 12 13 14 15 16 17 18 19 20
000
FTUS43 KPAH 281900 AAA
TAFPAH
TAF AMD
KPAH 281922Z 2819/2918 VRB04KT P6SM VCTS SCT050CB
     FM290900 00000KT 5SM BR SCT250
     FM291500 19005KT P6SM SCT050=

USA.gov is the U.S. government's official web portal to all federal, state and local government web resources and services.